Главная страница
METAR-TAF:

METAR-TAF

Аэропорты :

Элиста, Россия

широта: 46-22N, долгота: 044-20E, высота над уровнем моря: 150 м

Текущие метеонаблюдения

Эта сводка был подготовлена 34 минут назад, в 22:00 UTC
Ветер 4 Узел от восточный
Температура 23°C
Влажность 20%
Давление 1011 hPa
Видимость 10 км и более

METAR: URWI 172200Z AUTO 08002MPS 9999 // ///110/// 23/M01 Q1011

Время: 01:34 (22:34 UTC)

Прогноз

Эта сводка был подготовлена 11 часа и 34 минут назад, в 11:00 UTC
Прогноз действительный с 17-го 12 UTC до 17-го 21 UTC
Ветер 12 Узел от восточно-северо-восточный с порывами до 23 Узел
Видимость 10 км и более
Отдельные облака на высоте 4000 фута
изменения
С 17-го 16 UTC до 17-го 18 UTC
Ветер 6 Узел от северо-восточный с порывами до 16 Узел

TAF: URWI 171100Z 1712/1721 07006G12MPS 9999 SCT040 BECMG 1716/1718 05003G08MPS

Метеонаблюдения и прогнозы для более 4000 аэропортов (сводки METAR и TAF).

Имеющиеся станции представлены на карте желтыми и красными точками.

Чтобы увидеть название станции, наведите на нее мышь.

Затем щелкните, чтобы увидеть метеонаблюдения и метеопрогнозы.

Управление картой: чтобы увеличить масштаб, щелкните зеленые кнопки с черным крестиком; чтобы уменьшить масштаб, щелкните зеленую кнопку с тире; для просмотра соседних карт щелкайте зеленые стрелки.


METAR-TAF: